TVQ YMNG-YSHT
Flight info
| Callsign | TVQ |
|---|---|
| Flight time | N/A |
| Altitude | 5000 |
| Route | MNG W481 LACEY W188 COLDS/N0140A030 V512 MOSVO DCT ESDAN DCT ML/N0140A050 DCT MNG/N0140A030 W477 SHT/N0140A040 W477 MNG |
| Aircraft | PA44/L-SDGRY/S |
Departure
| Time | 2026-04-18 03:11 |
|---|---|
| Airport | Mangalore Airport (YMNG) |
Arrival
| Time | N/A |
|---|---|
| Airport | Shepparton Airport (YSHT) |
| Time | Latitude | Longitude | Altitude | Speed | Heading |
|---|---|---|---|---|---|
| 2026-04-18 03:10 | -37.09408 | 145.29044 | 4997 ft | 144 kts | 161° |
| 2026-04-18 03:11 | -37.10346 | 145.29479 | 5011 ft | 145 kts | 161° |
| 2026-04-18 03:11 | -37.11297 | 145.29918 | 5062 ft | 147 kts | 161° |
| 2026-04-18 03:11 | -37.12264 | 145.30359 | 5054 ft | 148 kts | 161° |
| 2026-04-18 03:11 | -37.13219 | 145.30806 | 5035 ft | 146 kts | 161° |
| 2026-04-18 03:12 | -37.14170 | 145.31255 | 5046 ft | 146 kts | 161° |
| 2026-04-18 03:12 | -37.15108 | 145.31686 | 5031 ft | 145 kts | 161° |
| 2026-04-18 03:12 | -37.16052 | 145.32125 | 5026 ft | 145 kts | 161° |
| 2026-04-18 03:12 | -37.16991 | 145.32559 | 5004 ft | 143 kts | 162° |
| 2026-04-18 03:13 | -37.17929 | 145.32996 | 5005 ft | 144 kts | 160° |
| 2026-04-18 03:13 | -37.18861 | 145.33428 | 4994 ft | 142 kts | 161° |
| 2026-04-18 03:13 | -37.19787 | 145.33857 | 5000 ft | 142 kts | 161° |
| 2026-04-18 03:13 | -37.20712 | 145.34289 | 4992 ft | 141 kts | 161° |
| 2026-04-18 03:14 | -37.21633 | 145.34721 | 4991 ft | 142 kts | 161° |
| 2026-04-18 03:14 | -37.22554 | 145.35147 | 4978 ft | 140 kts | 160° |
| 2026-04-18 03:14 | -37.23468 | 145.35574 | 4994 ft | 140 kts | 160° |
| 2026-04-18 03:14 | -37.24383 | 145.36001 | 5006 ft | 140 kts | 161° |
| 2026-04-18 03:15 | -37.25305 | 145.36425 | 5006 ft | 141 kts | 160° |
| 2026-04-18 03:15 | -37.26223 | 145.36854 | 5002 ft | 141 kts | 161° |
| 2026-04-18 03:15 | -37.27143 | 145.37282 | 4997 ft | 141 kts | 161° |
| 2026-04-18 03:15 | -37.28059 | 145.37702 | 4977 ft | 139 kts | 163° |
| 2026-04-18 03:16 | -37.28967 | 145.38069 | 4973 ft | 136 kts | 163° |
| 2026-04-18 03:16 | -37.29851 | 145.38436 | 4995 ft | 136 kts | 163° |
| 2026-04-18 03:16 | -37.30748 | 145.38867 | 5000 ft | 136 kts | 160° |
| 2026-04-18 03:16 | -37.31618 | 145.39300 | 5005 ft | 137 kts | 161° |
| 2026-04-18 03:17 | -37.32505 | 145.39721 | 4994 ft | 136 kts | 161° |
| 2026-04-18 03:17 | -37.33398 | 145.40137 | 5019 ft | 138 kts | 162° |
| 2026-04-18 03:17 | -37.34302 | 145.40556 | 5026 ft | 138 kts | 162° |
| 2026-04-18 03:17 | -37.35212 | 145.40979 | 5018 ft | 140 kts | 162° |
| 2026-04-18 03:18 | -37.36118 | 145.41404 | 5007 ft | 139 kts | 161° |
| 2026-04-18 03:18 | -37.37016 | 145.41847 | 5003 ft | 139 kts | 160° |
| 2026-04-18 03:18 | -37.37917 | 145.42289 | 5010 ft | 139 kts | 161° |
| 2026-04-18 03:18 | -37.38829 | 145.42709 | 5000 ft | 140 kts | 162° |
| 2026-04-18 03:19 | -37.39743 | 145.43124 | 4990 ft | 140 kts | 161° |
| 2026-04-18 03:19 | -37.40651 | 145.43558 | 4998 ft | 140 kts | 160° |
| 2026-04-18 03:19 | -37.41561 | 145.44014 | 5010 ft | 141 kts | 159° |
| 2026-04-18 03:19 | -37.42480 | 145.44461 | 5013 ft | 142 kts | 160° |
| 2026-04-18 03:20 | -37.43394 | 145.44888 | 4997 ft | 142 kts | 161° |
| 2026-04-18 03:20 | -37.44318 | 145.45313 | 4995 ft | 141 kts | 161° |
| 2026-04-18 03:20 | -37.45239 | 145.45736 | 4987 ft | 141 kts | 161° |
| 2026-04-18 03:20 | -37.46157 | 145.46162 | 5004 ft | 141 kts | 160° |
| 2026-04-18 03:21 | -37.47070 | 145.46590 | 4983 ft | 140 kts | 161° |
| 2026-04-18 03:21 | -37.47981 | 145.47018 | 5012 ft | 141 kts | 160° |
| 2026-04-18 03:21 | -37.48899 | 145.47448 | 5022 ft | 141 kts | 161° |
| 2026-04-18 03:21 | -37.49816 | 145.47876 | 5009 ft | 140 kts | 160° |
| 2026-04-18 03:22 | -37.50733 | 145.48305 | 5021 ft | 140 kts | 161° |
| 2026-04-18 03:22 | -37.51651 | 145.48734 | 5009 ft | 141 kts | 161° |
| 2026-04-18 03:22 | -37.52566 | 145.49164 | 5004 ft | 140 kts | 161° |
| 2026-04-18 03:22 | -37.53479 | 145.49591 | 5005 ft | 140 kts | 161° |
| 2026-04-18 03:23 | -37.54404 | 145.50020 | 5056 ft | 143 kts | 162° |
| 2026-04-18 03:23 | -37.55373 | 145.50117 | 5055 ft | 143 kts | 195° |
| 2026-04-18 03:23 | -37.56243 | 145.49483 | 5048 ft | 146 kts | 214° |
| 2026-04-18 03:23 | -37.57026 | 145.48668 | 5039 ft | 146 kts | 216° |
| 2026-04-18 03:24 | -37.57841 | 145.47948 | 5007 ft | 142 kts | 210° |
| 2026-04-18 03:24 | -37.58621 | 145.47110 | 4950 ft | 146 kts | 217° |
| 2026-04-18 03:24 | -37.59374 | 145.46296 | 4988 ft | 143 kts | 217° |
| 2026-04-18 03:24 | -37.60129 | 145.45476 | 5006 ft | 143 kts | 217° |
| 2026-04-18 03:25 | -37.60896 | 145.44674 | 5022 ft | 143 kts | 214° |
| 2026-04-18 03:25 | -37.61694 | 145.43922 | 5018 ft | 143 kts | 212° |
| 2026-04-18 03:25 | -37.62491 | 145.43182 | 5048 ft | 143 kts | 212° |
| 2026-04-18 03:25 | -37.63289 | 145.42436 | 5070 ft | 143 kts | 213° |
| 2026-04-18 03:26 | -37.64088 | 145.41690 | 5078 ft | 143 kts | 213° |
| 2026-04-18 03:26 | -37.64887 | 145.40940 | 5102 ft | 143 kts | 213° |
| 2026-04-18 03:26 | -37.65682 | 145.40183 | 5137 ft | 143 kts | 214° |
| 2026-04-18 03:26 | -37.66473 | 145.39421 | 5151 ft | 143 kts | 214° |
| 2026-04-18 03:27 | -37.67274 | 145.38646 | 5068 ft | 148 kts | 214° |
| 2026-04-18 03:27 | -37.68099 | 145.37852 | 5035 ft | 148 kts | 214° |
| 2026-04-18 03:27 | -37.68915 | 145.37065 | 5035 ft | 147 kts | 214° |
| 2026-04-18 03:27 | -37.69731 | 145.36276 | 5026 ft | 148 kts | 215° |
| 2026-04-18 03:28 | -37.70539 | 145.35481 | 5020 ft | 147 kts | 215° |
| 2026-04-18 03:28 | -37.71297 | 145.34610 | 5018 ft | 148 kts | 224° |
| 2026-04-18 03:28 | -37.71806 | 145.33474 | 5015 ft | 153 kts | 249° |
| 2026-04-18 03:28 | -37.71834 | 145.32130 | 5022 ft | 157 kts | 278° |
| 2026-04-18 03:29 | -37.71509 | 145.30824 | 4989 ft | 159 kts | 289° |
| 2026-04-18 03:29 | -37.71128 | 145.29528 | 4868 ft | 156 kts | 284° |
| 2026-04-18 03:29 | -37.71016 | 145.28193 | 4732 ft | 152 kts | 264° |
| 2026-04-18 03:29 | -37.71138 | 145.26880 | 4602 ft | 150 kts | 257° |
| 2026-04-18 03:30 | -37.71315 | 145.25583 | 4483 ft | 149 kts | 257° |
| 2026-04-18 03:30 | -37.71483 | 145.24288 | 4372 ft | 149 kts | 258° |
| 2026-04-18 03:30 | -37.71578 | 145.23425 | 4279 ft | 150 kts | 259° |
| 2026-04-18 03:30 | -37.71705 | 145.22121 | 4147 ft | 149 kts | 260° |
| 2026-04-18 03:31 | -37.71860 | 145.20397 | 3979 ft | 149 kts | 260° |
| 2026-04-18 03:31 | -37.71934 | 145.19518 | 3903 ft | 149 kts | 260° |
| 2026-04-18 03:31 | -37.72046 | 145.18212 | 3791 ft | 150 kts | 260° |
| 2026-04-18 03:31 | -37.72157 | 145.16926 | 3661 ft | 149 kts | 259° |
| 2026-04-18 03:32 | -37.72280 | 145.15626 | 3549 ft | 149 kts | 259° |
| 2026-04-18 03:32 | -37.72405 | 145.14329 | 3416 ft | 148 kts | 259° |
| 2026-04-18 03:32 | -37.72513 | 145.13030 | 3287 ft | 148 kts | 261° |
| 2026-04-18 03:32 | -37.72586 | 145.11730 | 3186 ft | 149 kts | 263° |
| 2026-04-18 03:33 | -37.72607 | 145.10478 | 3101 ft | 129 kts | 265° |
| 2026-04-18 03:33 | -37.72601 | 145.09419 | 3068 ft | 115 kts | 264° |
| 2026-04-18 03:33 | -37.72601 | 145.08433 | 2986 ft | 112 kts | 263° |
| 2026-04-18 03:33 | -37.72636 | 145.07438 | 2821 ft | 114 kts | 261° |
| 2026-04-18 03:34 | -37.72671 | 145.06442 | 2675 ft | 113 kts | 262° |
| 2026-04-18 03:34 | -37.72712 | 145.05439 | 2530 ft | 115 kts | 262° |
| 2026-04-18 03:34 | -37.72733 | 145.04428 | 2352 ft | 115 kts | 262° |
| 2026-04-18 03:34 | -37.72752 | 145.03445 | 2219 ft | 112 kts | 262° |
| 2026-04-18 03:35 | -37.72772 | 145.02465 | 2085 ft | 112 kts | 262° |
| 2026-04-18 03:35 | -37.72793 | 145.01474 | 1945 ft | 114 kts | 262° |
| 2026-04-18 03:35 | -37.72811 | 145.00478 | 1809 ft | 108 kts | 260° |
| 2026-04-18 03:35 | -37.72856 | 144.99596 | 1717 ft | 97 kts | 261° |
| 2026-04-18 03:36 | -37.72888 | 144.98719 | 1523 ft | 101 kts | 263° |
| 2026-04-18 03:36 | -37.72917 | 144.97828 | 1361 ft | 103 kts | 262° |
| 2026-04-18 03:36 | -37.72954 | 144.96919 | 1131 ft | 103 kts | 264° |
| 2026-04-18 03:36 | -37.72960 | 144.96050 | 997 ft | 96 kts | 262° |
| 2026-04-18 03:37 | -37.72987 | 144.95211 | 868 ft | 95 kts | 261° |
| 2026-04-18 03:37 | -37.72999 | 144.94387 | 771 ft | 93 kts | 266° |
| 2026-04-18 03:37 | -37.73035 | 144.93569 | 633 ft | 93 kts | 260° |
| 2026-04-18 03:37 | -37.73056 | 144.92747 | 572 ft | 92 kts | 263° |
| 2026-04-18 03:38 | -37.73062 | 144.91972 | 806 ft | 86 kts | 263° |
| 2026-04-18 03:38 | -37.73088 | 144.91184 | 909 ft | 93 kts | 264° |
| 2026-04-18 03:38 | -37.73104 | 144.90331 | 1175 ft | 105 kts | 266° |
| 2026-04-18 03:38 | -37.73113 | 144.89372 | 1627 ft | 112 kts | 266° |
| 2026-04-18 03:39 | -37.73089 | 144.88330 | 1943 ft | 124 kts | 266° |
| 2026-04-18 03:39 | -37.73095 | 144.87214 | 2264 ft | 130 kts | 263° |
| 2026-04-18 03:39 | -37.73126 | 144.86060 | 2575 ft | 133 kts | 262° |
| 2026-04-18 03:39 | -37.73165 | 144.84869 | 2820 ft | 140 kts | 263° |
| 2026-04-18 03:40 | -37.73214 | 144.83595 | 2914 ft | 150 kts | 262° |
| 2026-04-18 03:40 | -37.73269 | 144.82247 | 2971 ft | 157 kts | 263° |
| 2026-04-18 03:40 | -37.73329 | 144.80853 | 2988 ft | 158 kts | 262° |
| 2026-04-18 03:40 | -37.73381 | 144.79514 | 3229 ft | 145 kts | 263° |
| 2026-04-18 03:41 | -37.73378 | 144.78299 | 3545 ft | 139 kts | 278° |
| 2026-04-18 03:41 | -37.72822 | 144.77319 | 3854 ft | 142 kts | 326° |
| 2026-04-18 03:41 | -37.71865 | 144.77135 | 4156 ft | 141 kts | 14° |
| 2026-04-18 03:41 | -37.71063 | 144.77776 | 4474 ft | 136 kts | 52° |
| 2026-04-18 03:42 | -37.70593 | 144.78779 | 4795 ft | 131 kts | 73° |
| 2026-04-18 03:42 | -37.70239 | 144.79861 | 4964 ft | 142 kts | 65° |
| 2026-04-18 03:42 | -37.69457 | 144.80703 | 4991 ft | 159 kts | 23° |
| 2026-04-18 03:42 | -37.68348 | 144.81015 | 5017 ft | 167 kts | 7° |
| 2026-04-18 03:43 | -37.67179 | 144.81180 | 5020 ft | 171 kts | 8° |
| 2026-04-18 03:43 | -37.66022 | 144.81532 | 5025 ft | 172 kts | 22° |
| 2026-04-18 03:43 | -37.64950 | 144.82197 | 5015 ft | 171 kts | 32° |
| 2026-04-18 03:43 | -37.63931 | 144.82931 | 5002 ft | 167 kts | 31° |
| 2026-04-18 03:44 | -37.62902 | 144.83601 | 5001 ft | 166 kts | 28° |
| 2026-04-18 03:44 | -37.61864 | 144.84196 | 5004 ft | 166 kts | 26° |
| 2026-04-18 03:44 | -37.60793 | 144.84760 | 5008 ft | 167 kts | 24° |
| 2026-04-18 03:44 | -37.59716 | 144.85299 | 5006 ft | 166 kts | 24° |
| 2026-04-18 03:45 | -37.58641 | 144.85829 | 5006 ft | 166 kts | 24° |
| 2026-04-18 03:45 | -37.57565 | 144.86357 | 5011 ft | 167 kts | 24° |
| 2026-04-18 03:45 | -37.56483 | 144.86890 | 5005 ft | 166 kts | 23° |
| 2026-04-18 03:45 | -37.55401 | 144.87416 | 5002 ft | 166 kts | 22° |
| 2026-04-18 03:46 | -37.54321 | 144.87932 | 5000 ft | 166 kts | 22° |
| 2026-04-18 03:46 | -37.53240 | 144.88452 | 5004 ft | 166 kts | 23° |
| 2026-04-18 03:46 | -37.52155 | 144.88979 | 4995 ft | 167 kts | 24° |
| 2026-04-18 03:46 | -37.51073 | 144.89502 | 4991 ft | 167 kts | 24° |
| 2026-04-18 03:47 | -37.49988 | 144.90028 | 4994 ft | 167 kts | 23° |
| 2026-04-18 03:47 | -37.48902 | 144.90550 | 4988 ft | 167 kts | 23° |
| 2026-04-18 03:47 | -37.47817 | 144.91075 | 4981 ft | 167 kts | 24° |
| 2026-04-18 03:47 | -37.46734 | 144.91599 | 4982 ft | 166 kts | 23° |
| 2026-04-18 03:48 | -37.45653 | 144.92121 | 4990 ft | 167 kts | 22° |
| 2026-04-18 03:48 | -37.44583 | 144.92635 | 4987 ft | 167 kts | 23° |
| 2026-04-18 03:48 | -37.43499 | 144.93159 | 4989 ft | 167 kts | 22° |
| 2026-04-18 03:48 | -37.42414 | 144.93681 | 4978 ft | 167 kts | 22° |
| 2026-04-18 03:49 | -37.41327 | 144.94205 | 4977 ft | 167 kts | 23° |
| 2026-04-18 03:49 | -37.40244 | 144.94727 | 4970 ft | 167 kts | 23° |
| 2026-04-18 03:49 | -37.39159 | 144.95249 | 4977 ft | 166 kts | 23° |
| 2026-04-18 03:49 | -37.38076 | 144.95769 | 4971 ft | 166 kts | 23° |
| 2026-04-18 03:50 | -37.36995 | 144.96290 | 4977 ft | 167 kts | 24° |
| 2026-04-18 03:50 | -37.35909 | 144.96814 | 4981 ft | 167 kts | 23° |
| 2026-04-18 03:50 | -37.34820 | 144.97338 | 4981 ft | 168 kts | 23° |
| 2026-04-18 03:50 | -37.33729 | 144.97864 | 4980 ft | 168 kts | 23° |
| 2026-04-18 03:51 | -37.32633 | 144.98389 | 4974 ft | 168 kts | 22° |
| 2026-04-18 03:51 | -37.31537 | 144.98913 | 4972 ft | 168 kts | 23° |
| 2026-04-18 03:51 | -37.30451 | 144.99439 | 4960 ft | 167 kts | 23° |
| 2026-04-18 03:51 | -37.29368 | 144.99957 | 4959 ft | 166 kts | 23° |
| 2026-04-18 03:52 | -37.28285 | 145.00475 | 4964 ft | 167 kts | 22° |
| 2026-04-18 03:52 | -37.27217 | 145.00988 | 4969 ft | 166 kts | 23° |
| 2026-04-18 03:52 | -37.26134 | 145.01509 | 4972 ft | 167 kts | 23° |
| 2026-04-18 03:52 | -37.25046 | 145.02023 | 4969 ft | 166 kts | 22° |
| 2026-04-18 03:53 | -37.23971 | 145.02550 | 4968 ft | 165 kts | 26° |
| 2026-04-18 03:53 | -37.23036 | 145.03373 | 4969 ft | 164 kts | 45° |
| 2026-04-18 03:53 | -37.22225 | 145.04367 | 4976 ft | 163 kts | 49° |
| 2026-04-18 03:53 | -37.21426 | 145.05380 | 4972 ft | 163 kts | 49° |
| 2026-04-18 03:54 | -37.20614 | 145.06379 | 4958 ft | 163 kts | 48° |
| 2026-04-18 03:54 | -37.19796 | 145.07359 | 4956 ft | 162 kts | 47° |
| 2026-04-18 03:54 | -37.18973 | 145.08332 | 4964 ft | 162 kts | 47° |
| 2026-04-18 03:54 | -37.18146 | 145.09300 | 4961 ft | 162 kts | 47° |
| 2026-04-18 03:55 | -37.17323 | 145.10269 | 4961 ft | 162 kts | 46° |
| 2026-04-18 03:55 | -37.16505 | 145.11233 | 4957 ft | 161 kts | 49° |
| 2026-04-18 03:55 | -37.15705 | 145.12210 | 4972 ft | 160 kts | 49° |
| 2026-04-18 03:55 | -37.14897 | 145.13180 | 4971 ft | 161 kts | 47° |
| 2026-04-18 03:56 | -37.14001 | 145.13977 | 5043 ft | 160 kts | 21° |
| 2026-04-18 03:56 | -37.12904 | 145.13986 | 5014 ft | 166 kts | 342° |
| 2026-04-18 03:56 | -37.12023 | 145.13113 | 4976 ft | 162 kts | 297° |
| 2026-04-18 03:56 | -37.11847 | 145.11797 | 4995 ft | 150 kts | 253° |
| 2026-04-18 03:57 | -37.13374 | 145.10592 | 5157 ft | 134 kts | 193° |
| 2026-04-18 03:57 | -37.14273 | 145.10325 | 5243 ft | 133 kts | 192° |
| 2026-04-18 03:57 | -37.15206 | 145.10040 | 5184 ft | 140 kts | 191° |
| 2026-04-18 03:58 | -37.16163 | 145.09785 | 5136 ft | 141 kts | 191° |
| 2026-04-18 03:58 | -37.17136 | 145.09518 | 5042 ft | 146 kts | 192° |
| 2026-04-18 03:58 | -37.18119 | 145.09440 | 5000 ft | 143 kts | 164° |
| 2026-04-18 03:58 | -37.18835 | 145.10293 | 4871 ft | 150 kts | 119° |
| 2026-04-18 03:59 | -37.18841 | 145.11577 | 4891 ft | 155 kts | 73° |
| 2026-04-18 03:59 | -37.18104 | 145.12550 | 4900 ft | 163 kts | 31° |
| 2026-04-18 03:59 | -37.17007 | 145.12956 | 4934 ft | 163 kts | 11° |
| 2026-04-18 03:59 | -37.15915 | 145.13195 | 4971 ft | 161 kts | 12° |
| 2026-04-18 04:00 | -37.14821 | 145.13472 | 5000 ft | 161 kts | 14° |
| 2026-04-18 04:00 | -37.13733 | 145.13759 | 5075 ft | 156 kts | 16° |
| 2026-04-18 04:00 | -37.12649 | 145.14007 | 5046 ft | 161 kts | 8° |
| 2026-04-18 04:00 | -37.11568 | 145.14203 | 4958 ft | 145 kts | 11° |
| 2026-04-18 04:01 | -37.10611 | 145.14406 | 4772 ft | 135 kts | 14° |
| 2026-04-18 04:01 | -37.09707 | 145.14610 | 4594 ft | 133 kts | 10° |
| 2026-04-18 04:01 | -37.08802 | 145.14779 | 4416 ft | 132 kts | 11° |
| 2026-04-18 04:01 | -37.07900 | 145.14978 | 4298 ft | 132 kts | 11° |
| 2026-04-18 04:02 | -37.07001 | 145.15197 | 4133 ft | 133 kts | 12° |
| 2026-04-18 04:02 | -37.06099 | 145.15395 | 3931 ft | 129 kts | 12° |
| 2026-04-18 04:02 | -37.05214 | 145.15591 | 3718 ft | 128 kts | 11° |
| 2026-04-18 04:02 | -37.04338 | 145.15747 | 3582 ft | 125 kts | 9° |
| 2026-04-18 04:03 | -37.03473 | 145.15911 | 3413 ft | 126 kts | 11° |
| 2026-04-18 04:03 | -37.02600 | 145.16094 | 3168 ft | 128 kts | 12° |
| 2026-04-18 04:03 | -37.01747 | 145.16312 | 3033 ft | 122 kts | 14° |
| 2026-04-18 04:03 | -37.00923 | 145.16500 | 2911 ft | 119 kts | 11° |
| 2026-04-18 04:04 | -37.00105 | 145.16686 | 2726 ft | 122 kts | 11° |
| 2026-04-18 04:04 | -36.99267 | 145.16832 | 2495 ft | 123 kts | 8° |
| 2026-04-18 04:04 | -36.98416 | 145.16960 | 2282 ft | 121 kts | 11° |
| 2026-04-18 04:04 | -36.97582 | 145.17120 | 2083 ft | 122 kts | 11° |
| 2026-04-18 04:05 | -36.96754 | 145.17317 | 1897 ft | 121 kts | 10° |
| 2026-04-18 04:05 | -36.95918 | 145.17466 | 1737 ft | 121 kts | 6° |
| 2026-04-18 04:05 | -36.95097 | 145.17640 | 1554 ft | 117 kts | 14° |
| 2026-04-18 04:05 | -36.94308 | 145.17852 | 1439 ft | 116 kts | 9° |
| 2026-04-18 04:06 | -36.93499 | 145.18000 | 1241 ft | 120 kts | 6° |
| 2026-04-18 04:06 | -36.92678 | 145.18132 | 1079 ft | 116 kts | 6° |
| 2026-04-18 04:06 | -36.91860 | 145.18261 | 968 ft | 119 kts | 8° |
| 2026-04-18 04:06 | -36.91041 | 145.18446 | 1222 ft | 128 kts | 12° |
| 2026-04-18 04:07 | -36.90096 | 145.18630 | 1485 ft | 143 kts | 9° |
| 2026-04-18 04:07 | -36.89112 | 145.18785 | 1928 ft | 139 kts | 10° |
| 2026-04-18 04:07 | -36.88336 | 145.19084 | 2640 ft | 116 kts | 16° |
| 2026-04-18 04:07 | -36.87470 | 145.19263 | 2944 ft | 136 kts | 9° |
| 2026-04-18 04:08 | -36.86464 | 145.19438 | 3041 ft | 158 kts | 11° |
| 2026-04-18 04:08 | -36.85332 | 145.19680 | 3091 ft | 170 kts | 20° |
| 2026-04-18 04:08 | -36.84304 | 145.20428 | 3108 ft | 172 kts | 40° |
| 2026-04-18 04:08 | -36.83325 | 145.21309 | 3122 ft | 175 kts | 38° |
| 2026-04-18 04:09 | -36.82254 | 145.22075 | 3031 ft | 179 kts | 29° |
| 2026-04-18 04:09 | -36.81132 | 145.22710 | 2958 ft | 175 kts | 25° |
| 2026-04-18 04:09 | -36.80013 | 145.23259 | 2944 ft | 170 kts | 23° |
| 2026-04-18 04:09 | -36.78906 | 145.23771 | 2957 ft | 170 kts | 23° |
| 2026-04-18 04:10 | -36.77808 | 145.24269 | 2946 ft | 169 kts | 22° |
| 2026-04-18 04:10 | -36.76691 | 145.24741 | 2941 ft | 169 kts | 20° |
| 2026-04-18 04:10 | -36.75582 | 145.25207 | 2963 ft | 169 kts | 22° |
| 2026-04-18 04:10 | -36.74461 | 145.25694 | 2961 ft | 170 kts | 21° |
| 2026-04-18 04:11 | -36.73343 | 145.26181 | 2965 ft | 170 kts | 21° |
| 2026-04-18 04:11 | -36.72232 | 145.26680 | 2952 ft | 170 kts | 22° |
| 2026-04-18 04:11 | -36.71119 | 145.27184 | 2953 ft | 170 kts | 22° |
| 2026-04-18 04:11 | -36.70007 | 145.27672 | 2954 ft | 170 kts | 21° |
| 2026-04-18 04:12 | -36.68891 | 145.28160 | 2988 ft | 171 kts | 21° |
| 2026-04-18 04:12 | -36.67754 | 145.28657 | 2986 ft | 173 kts | 21° |
| 2026-04-18 04:12 | -36.66626 | 145.29154 | 2957 ft | 171 kts | 22° |
| 2026-04-18 04:12 | -36.65505 | 145.29645 | 2972 ft | 171 kts | 21° |
| 2026-04-18 04:13 | -36.64391 | 145.30129 | 2964 ft | 172 kts | 20° |
| 2026-04-18 04:13 | -36.63259 | 145.30625 | 2970 ft | 173 kts | 21° |
| 2026-04-18 04:13 | -36.62116 | 145.31128 | 2941 ft | 171 kts | 20° |
| 2026-04-18 04:13 | -36.61021 | 145.31611 | 2911 ft | 168 kts | 21° |
| 2026-04-18 04:14 | -36.59925 | 145.32105 | 2932 ft | 168 kts | 21° |
| 2026-04-18 04:14 | -36.58821 | 145.32591 | 2941 ft | 169 kts | 21° |
| 2026-04-18 04:14 | -36.57719 | 145.33075 | 2927 ft | 167 kts | 20° |
| 2026-04-18 04:14 | -36.56620 | 145.33553 | 2928 ft | 167 kts | 20° |
| 2026-04-18 04:15 | -36.55517 | 145.34027 | 2925 ft | 167 kts | 20° |
| 2026-04-18 04:15 | -36.54413 | 145.34508 | 2928 ft | 168 kts | 21° |
| 2026-04-18 04:15 | -36.53311 | 145.34999 | 2938 ft | 169 kts | 21° |
| 2026-04-18 04:15 | -36.52200 | 145.35491 | 2944 ft | 170 kts | 21° |
| 2026-04-18 04:16 | -36.51084 | 145.35990 | 2952 ft | 171 kts | 21° |
| 2026-04-18 04:16 | -36.49964 | 145.36489 | 2950 ft | 171 kts | 21° |
| 2026-04-18 04:16 | -36.48840 | 145.36981 | 2947 ft | 171 kts | 20° |
| 2026-04-18 04:16 | -36.47717 | 145.37468 | 2942 ft | 171 kts | 20° |
| 2026-04-18 04:17 | -36.46598 | 145.37954 | 2932 ft | 170 kts | 19° |
| 2026-04-18 04:17 | -36.45490 | 145.38439 | 2920 ft | 168 kts | 21° |
| 2026-04-18 04:17 | -36.44402 | 145.38943 | 2787 ft | 172 kts | 23° |
| 2026-04-18 04:17 | -36.43280 | 145.39475 | 2540 ft | 172 kts | 20° |
| 2026-04-18 04:18 | -36.42201 | 145.40024 | 2514 ft | 161 kts | 34° |
| 2026-04-18 04:18 | -36.41367 | 145.40921 | 2460 ft | 157 kts | 39° |
| 2026-04-18 04:18 | -36.40689 | 145.41271 | 2416 ft | 160 kts | 10° |
| 2026-04-18 04:18 | -36.39178 | 145.41393 | 2176 ft | 167 kts | 360° |
| 2026-04-18 04:19 | -36.38403 | 145.41433 | 2057 ft | 169 kts | 360° |
| 2026-04-18 04:19 | -36.37295 | 145.41132 | 1904 ft | 161 kts | 322° |
| 2026-04-18 04:19 | -36.36702 | 145.40086 | 1815 ft | 144 kts | 276° |
| 2026-04-18 04:19 | -36.36902 | 145.39008 | 1887 ft | 121 kts | 227° |
| 2026-04-18 04:20 | -36.37658 | 145.38655 | 1896 ft | 122 kts | 176° |
| 2026-04-18 04:20 | -36.38418 | 145.39209 | 1787 ft | 132 kts | 149° |
| 2026-04-18 04:20 | -36.39156 | 145.39812 | 1861 ft | 122 kts | 166° |
| 2026-04-18 04:20 | -36.40004 | 145.39826 | 1833 ft | 124 kts | 183° |
| 2026-04-18 04:21 | -36.40864 | 145.39773 | 1847 ft | 122 kts | 185° |
| 2026-04-18 04:21 | -36.41728 | 145.39731 | 1785 ft | 127 kts | 184° |
| 2026-04-18 04:21 | -36.42611 | 145.39676 | 1768 ft | 127 kts | 185° |
| 2026-04-18 04:21 | -36.43492 | 145.39569 | 1709 ft | 128 kts | 187° |
| 2026-04-18 04:22 | -36.44260 | 145.39159 | 1773 ft | 122 kts | 226° |
| 2026-04-18 04:22 | -36.44509 | 145.38173 | 1988 ft | 124 kts | 266° |
| 2026-04-18 04:22 | -36.44127 | 145.37177 | 2009 ft | 143 kts | 310° |
| 2026-04-18 04:22 | -36.43167 | 145.36761 | 1987 ft | 154 kts | 0° |
| 2026-04-18 04:23 | -36.42074 | 145.36796 | 1933 ft | 158 kts | 358° |
| 2026-04-18 04:23 | -36.40968 | 145.36773 | 1895 ft | 158 kts | 358° |
| 2026-04-18 04:23 | -36.39873 | 145.36780 | 1919 ft | 157 kts | 0° |
| 2026-04-18 04:23 | -36.38779 | 145.36926 | 1887 ft | 160 kts | 20° |
| 2026-04-18 04:24 | -36.37986 | 145.37854 | 1877 ft | 157 kts | 69° |
| 2026-04-18 04:24 | -36.37850 | 145.39118 | 1883 ft | 145 kts | 106° |
| 2026-04-18 04:24 | -36.38318 | 145.40140 | 1900 ft | 134 kts | 147° |
| 2026-04-18 04:24 | -36.39168 | 145.40456 | 1850 ft | 129 kts | 182° |
| 2026-04-18 04:25 | -36.40026 | 145.40172 | 1816 ft | 128 kts | 203° |
| 2026-04-18 04:25 | -36.40907 | 145.40028 | 1823 ft | 126 kts | 184° |
| 2026-04-18 04:25 | -36.41765 | 145.39891 | 1850 ft | 125 kts | 191° |
| 2026-04-18 04:25 | -36.42625 | 145.39702 | 1814 ft | 124 kts | 190° |
| 2026-04-18 04:26 | -36.43478 | 145.39639 | 1828 ft | 121 kts | 183° |
| 2026-04-18 04:26 | -36.44327 | 145.39571 | 1810 ft | 125 kts | 185° |
| 2026-04-18 04:26 | -36.45212 | 145.39503 | 1812 ft | 125 kts | 184° |
| 2026-04-18 04:26 | -36.46050 | 145.39455 | 1911 ft | 121 kts | 182° |
| 2026-04-18 04:27 | -36.46910 | 145.39423 | 1886 ft | 126 kts | 184° |
| 2026-04-18 04:27 | -36.47791 | 145.39356 | 1846 ft | 125 kts | 184° |
| 2026-04-18 04:27 | -36.48663 | 145.39301 | 1891 ft | 124 kts | 184° |
| 2026-04-18 04:27 | -36.49514 | 145.39232 | 1960 ft | 123 kts | 185° |
| 2026-04-18 04:28 | -36.50362 | 145.39004 | 1910 ft | 130 kts | 209° |
| 2026-04-18 04:28 | -36.50837 | 145.38037 | 1832 ft | 139 kts | 255° |
| 2026-04-18 04:28 | -36.50611 | 145.36867 | 1779 ft | 152 kts | 297° |
| 2026-04-18 04:28 | -36.49704 | 145.36131 | 1715 ft | 163 kts | 343° |
| 2026-04-18 04:29 | -36.48585 | 145.36328 | 1615 ft | 167 kts | 22° |
| 2026-04-18 04:29 | -36.47508 | 145.36841 | 1500 ft | 159 kts | 21° |
| 2026-04-18 04:29 | -36.46583 | 145.37313 | 1359 ft | 133 kts | 23° |
| 2026-04-18 04:29 | -36.45761 | 145.37741 | 1222 ft | 126 kts | 24° |
| 2026-04-18 04:30 | -36.44967 | 145.38186 | 1028 ft | 125 kts | 24° |
| 2026-04-18 04:30 | -36.44151 | 145.38691 | 1029 ft | 142 kts | 29° |
| 2026-04-18 04:30 | -36.43261 | 145.39311 | 1357 ft | 150 kts | 32° |
| 2026-04-18 04:30 | -36.42357 | 145.39991 | 1660 ft | 154 kts | 32° |
| 2026-04-18 04:31 | -36.41415 | 145.40655 | 1964 ft | 157 kts | 30° |
| 2026-04-18 04:31 | -36.40473 | 145.41315 | 2261 ft | 158 kts | 30° |
| 2026-04-18 04:31 | -36.39515 | 145.41980 | 2579 ft | 158 kts | 30° |
| 2026-04-18 04:31 | -36.38522 | 145.42624 | 2777 ft | 165 kts | 22° |
| 2026-04-18 04:32 | -36.37383 | 145.42660 | 2838 ft | 168 kts | 336° |
| 2026-04-18 04:32 | -36.36508 | 145.41769 | 2878 ft | 163 kts | 296° |
| 2026-04-18 04:32 | -36.36249 | 145.40535 | 3317 ft | 127 kts | 261° |
| 2026-04-18 04:32 | -36.36434 | 145.39632 | 3908 ft | 102 kts | 238° |
| 2026-04-18 04:33 | -36.36909 | 145.38851 | 3922 ft | 123 kts | 217° |
| 2026-04-18 04:33 | -36.37737 | 145.38480 | 3918 ft | 133 kts | 183° |
| 2026-04-18 04:33 | -36.38675 | 145.38609 | 3916 ft | 138 kts | 173° |
| 2026-04-18 04:33 | -36.39623 | 145.38828 | 3925 ft | 138 kts | 173° |
| 2026-04-18 04:34 | -36.40558 | 145.39056 | 3936 ft | 139 kts | 172° |
| 2026-04-18 04:34 | -36.41501 | 145.39288 | 3921 ft | 137 kts | 172° |
| 2026-04-18 04:34 | -36.42433 | 145.39506 | 3917 ft | 135 kts | 174° |
| 2026-04-18 04:34 | -36.43350 | 145.39387 | 3912 ft | 133 kts | 197° |
| 2026-04-18 04:35 | -36.44224 | 145.38992 | 3923 ft | 134 kts | 200° |
| 2026-04-18 04:35 | -36.45106 | 145.38603 | 3931 ft | 135 kts | 198° |
| 2026-04-18 04:35 | -36.45996 | 145.38212 | 3933 ft | 136 kts | 199° |
| 2026-04-18 04:35 | -36.46890 | 145.37821 | 3929 ft | 136 kts | 198° |
| 2026-04-18 04:36 | -36.47783 | 145.37433 | 3935 ft | 136 kts | 199° |
| 2026-04-18 04:36 | -36.48678 | 145.37043 | 3936 ft | 136 kts | 198° |
| 2026-04-18 04:36 | -36.49561 | 145.36654 | 3936 ft | 137 kts | 198° |
| 2026-04-18 04:36 | -36.50456 | 145.36263 | 3935 ft | 136 kts | 199° |
| 2026-04-18 04:37 | -36.51354 | 145.35861 | 3933 ft | 137 kts | 199° |
| 2026-04-18 04:37 | -36.52252 | 145.35463 | 3935 ft | 138 kts | 199° |
| 2026-04-18 04:37 | -36.53158 | 145.35062 | 3934 ft | 138 kts | 199° |
| 2026-04-18 04:37 | -36.54062 | 145.34665 | 3930 ft | 137 kts | 200° |
| 2026-04-18 04:38 | -36.54958 | 145.34270 | 3916 ft | 135 kts | 199° |
| 2026-04-18 04:38 | -36.55844 | 145.33882 | 3912 ft | 135 kts | 199° |
| 2026-04-18 04:38 | -36.56726 | 145.33492 | 3917 ft | 134 kts | 199° |
| 2026-04-18 04:38 | -36.57598 | 145.33116 | 3923 ft | 135 kts | 199° |
| 2026-04-18 04:39 | -36.58484 | 145.32732 | 3918 ft | 134 kts | 199° |
| 2026-04-18 04:39 | -36.59364 | 145.32347 | 3916 ft | 134 kts | 199° |
| 2026-04-18 04:39 | -36.60240 | 145.31958 | 3926 ft | 134 kts | 199° |
| 2026-04-18 04:39 | -36.61125 | 145.31570 | 3930 ft | 134 kts | 199° |
| 2026-04-18 04:40 | -36.62004 | 145.31180 | 3917 ft | 134 kts | 200° |
| 2026-04-18 04:40 | -36.62878 | 145.30786 | 3921 ft | 134 kts | 199° |
| 2026-04-18 04:40 | -36.63758 | 145.30397 | 3935 ft | 135 kts | 199° |
| 2026-04-18 04:40 | -36.64645 | 145.30008 | 3942 ft | 135 kts | 198° |
| 2026-04-18 04:41 | -36.65528 | 145.29620 | 3944 ft | 136 kts | 198° |
| 2026-04-18 04:41 | -36.66429 | 145.29227 | 3947 ft | 138 kts | 199° |
| 2026-04-18 04:41 | -36.67334 | 145.28835 | 3940 ft | 137 kts | 199° |
| 2026-04-18 04:41 | -36.68228 | 145.28439 | 3929 ft | 136 kts | 199° |
| 2026-04-18 04:42 | -36.69124 | 145.28039 | 3956 ft | 138 kts | 200° |
| 2026-04-18 04:42 | -36.70032 | 145.27632 | 3952 ft | 138 kts | 199° |
| 2026-04-18 04:42 | -36.70937 | 145.27233 | 3932 ft | 136 kts | 196° |
| 2026-04-18 04:42 | -36.71837 | 145.26882 | 3932 ft | 136 kts | 199° |
| 2026-04-18 04:43 | -36.72729 | 145.26467 | 3936 ft | 137 kts | 200° |
| 2026-04-18 04:43 | -36.73622 | 145.26053 | 3940 ft | 137 kts | 200° |
| 2026-04-18 04:43 | -36.74513 | 145.25647 | 3942 ft | 136 kts | 199° |
| 2026-04-18 04:43 | -36.75400 | 145.25254 | 3931 ft | 135 kts | 200° |
| 2026-04-18 04:44 | -36.76292 | 145.24868 | 3943 ft | 136 kts | 199° |
| 2026-04-18 04:44 | -36.77171 | 145.24484 | 3917 ft | 134 kts | 198° |
| 2026-04-18 04:44 | -36.78050 | 145.24094 | 3916 ft | 134 kts | 199° |
| 2026-04-18 04:44 | -36.78928 | 145.23704 | 3927 ft | 134 kts | 199° |
| 2026-04-18 04:45 | -36.79813 | 145.23310 | 3925 ft | 135 kts | 200° |
| 2026-04-18 04:45 | -36.80699 | 145.22914 | 3913 ft | 134 kts | 198° |
| 2026-04-18 04:45 | -36.81575 | 145.22532 | 3921 ft | 134 kts | 199° |
| 2026-04-18 04:45 | -36.82450 | 145.22139 | 3920 ft | 133 kts | 199° |
| 2026-04-18 04:46 | -36.83342 | 145.21837 | 3928 ft | 133 kts | 192° |
| 2026-04-18 04:46 | -36.84247 | 145.21596 | 3939 ft | 133 kts | 192° |
| 2026-04-18 04:46 | -36.85103 | 145.21188 | 3929 ft | 133 kts | 213° |
| 2026-04-18 04:46 | -36.85799 | 145.20434 | 3948 ft | 130 kts | 216° |
| 2026-04-18 04:47 | -36.86578 | 145.19878 | 3975 ft | 130 kts | 206° |
| 2026-04-18 04:47 | -36.87382 | 145.19382 | 4088 ft | 128 kts | 202° |
| 2026-04-18 04:47 | -36.88209 | 145.19002 | 4150 ft | 129 kts | 201° |
| 2026-04-18 04:47 | -36.88940 | 145.18452 | 4350 ft | 122 kts | 223° |
| 2026-04-18 04:48 | -36.89342 | 145.17437 | 4106 ft | 140 kts | 239° |
| 2026-04-18 04:48 | -36.90090 | 145.16721 | 4025 ft | 134 kts | 200° |
| 2026-04-18 04:48 | -36.90993 | 145.16510 | 4055 ft | 130 kts | 193° |
| 2026-04-18 04:48 | -36.91902 | 145.16265 | 4023 ft | 133 kts | 194° |
| 2026-04-18 04:49 | -36.92775 | 145.15984 | 4055 ft | 126 kts | 197° |
| 2026-04-18 04:49 | -36.93607 | 145.15704 | 4076 ft | 125 kts | 184° |
| 2026-04-18 04:49 | -36.94398 | 145.16176 | 4085 ft | 137 kts | 139° |
| 2026-04-18 04:49 | -36.94778 | 145.17283 | 4092 ft | 149 kts | 102° |
| 2026-04-18 04:50 | -36.94445 | 145.18523 | 4148 ft | 159 kts | 56° |
| 2026-04-18 04:50 | -36.93483 | 145.19272 | 4105 ft | 167 kts | 12° |
| 2026-04-18 04:50 | -36.92375 | 145.19155 | 4189 ft | 157 kts | 338° |
| 2026-04-18 04:50 | -36.91344 | 145.18699 | 4216 ft | 159 kts | 332° |
| 2026-04-18 04:51 | -36.90301 | 145.18170 | 4118 ft | 162 kts | 336° |
| 2026-04-18 04:51 | -36.89185 | 145.18037 | 4143 ft | 165 kts | 7° |
| 2026-04-18 04:51 | -36.88149 | 145.18647 | 4134 ft | 166 kts | 34° |
| 2026-04-18 04:51 | -36.87351 | 145.19609 | 4172 ft | 156 kts | 70° |
| 2026-04-18 04:52 | -36.87298 | 145.20877 | 4168 ft | 142 kts | 117° |
| 2026-04-18 04:52 | -36.87850 | 145.21773 | 4184 ft | 127 kts | 158° |
| 2026-04-18 04:52 | -36.88691 | 145.21798 | 4107 ft | 124 kts | 199° |
| 2026-04-18 04:52 | -36.89455 | 145.21334 | 4175 ft | 119 kts | 210° |
| 2026-04-18 04:53 | -36.90172 | 145.20869 | 4146 ft | 118 kts | 211° |
| 2026-04-18 04:53 | -36.90892 | 145.20314 | 4057 ft | 125 kts | 210° |
| 2026-04-18 04:53 | -36.91636 | 145.19715 | 3979 ft | 129 kts | 210° |
| 2026-04-18 04:53 | -36.92401 | 145.19130 | 3861 ft | 131 kts | 210° |
| 2026-04-18 04:54 | -36.93131 | 145.18476 | 3906 ft | 127 kts | 224° |
| 2026-04-18 04:54 | -36.93450 | 145.17430 | 3848 ft | 141 kts | 263° |
| 2026-04-18 04:54 | -36.92996 | 145.16270 | 3689 ft | 162 kts | 315° |
| 2026-04-18 04:54 | -36.91908 | 145.16027 | 3763 ft | 165 kts | 17° |
| 2026-04-18 04:55 | -36.90875 | 145.16677 | 3715 ft | 169 kts | 31° |
| 2026-04-18 04:55 | -36.89886 | 145.17436 | 3736 ft | 166 kts | 36° |
| 2026-04-18 04:55 | -36.88955 | 145.18288 | 3794 ft | 165 kts | 39° |
| 2026-04-18 04:56 | -36.87266 | 145.20167 | 3908 ft | 160 kts | 39° |
| 2026-04-18 04:56 | -36.86311 | 145.20875 | 3940 ft | 159 kts | 29° |
| 2026-04-18 04:56 | -36.85322 | 145.21511 | 3959 ft | 164 kts | 29° |
| 2026-04-18 04:56 | -36.84295 | 145.22161 | 3976 ft | 166 kts | 27° |
| 2026-04-18 04:57 | -36.83253 | 145.22809 | 3982 ft | 167 kts | 28° |
| 2026-04-18 04:57 | -36.82206 | 145.23448 | 3952 ft | 168 kts | 26° |
| 2026-04-18 04:57 | -36.81147 | 145.24107 | 3849 ft | 170 kts | 29° |
| 2026-04-18 04:57 | -36.80080 | 145.24773 | 3702 ft | 172 kts | 27° |
| 2026-04-18 04:58 | -36.79003 | 145.25448 | 3543 ft | 175 kts | 27° |
| 2026-04-18 04:58 | -36.77898 | 145.26132 | 3391 ft | 176 kts | 29° |
| 2026-04-18 04:58 | -36.76819 | 145.26814 | 3302 ft | 173 kts | 26° |
| 2026-04-18 04:58 | -36.75751 | 145.27443 | 3177 ft | 172 kts | 26° |
| 2026-04-18 04:59 | -36.74710 | 145.28098 | 3226 ft | 164 kts | 39° |
| 2026-04-18 04:59 | -36.74084 | 145.29235 | 3062 ft | 160 kts | 83° |
| 2026-04-18 04:59 | -36.74223 | 145.30468 | 3042 ft | 128 kts | 129° |
| 2026-04-18 04:59 | -36.74868 | 145.31019 | 3007 ft | 112 kts | 173° |
| 2026-04-18 05:00 | -36.75623 | 145.30949 | 2960 ft | 107 kts | 195° |
| 2026-04-18 05:00 | -36.76305 | 145.30542 | 2893 ft | 109 kts | 208° |
| 2026-04-18 05:00 | -36.76914 | 145.29992 | 2792 ft | 108 kts | 214° |
| 2026-04-18 05:00 | -36.77544 | 145.29465 | 2716 ft | 106 kts | 207° |
| 2026-04-18 05:01 | -36.78148 | 145.28970 | 2628 ft | 105 kts | 210° |
| 2026-04-18 05:01 | -36.78736 | 145.28449 | 2562 ft | 103 kts | 208° |
| 2026-04-18 05:01 | -36.79321 | 145.27974 | 2573 ft | 98 kts | 208° |
| 2026-04-18 05:01 | -36.79906 | 145.27491 | 2505 ft | 102 kts | 211° |
| 2026-04-18 05:02 | -36.80523 | 145.27016 | 2351 ft | 106 kts | 207° |
| 2026-04-18 05:02 | -36.81120 | 145.26529 | 2356 ft | 100 kts | 207° |
| 2026-04-18 05:02 | -36.81727 | 145.26016 | 2153 ft | 108 kts | 213° |
| 2026-04-18 05:02 | -36.82292 | 145.25437 | 2111 ft | 105 kts | 214° |
| 2026-04-18 05:03 | -36.82851 | 145.24862 | 2003 ft | 106 kts | 213° |
| 2026-04-18 05:03 | -36.83443 | 145.24294 | 1841 ft | 110 kts | 214° |
| 2026-04-18 05:03 | -36.84036 | 145.23695 | 1724 ft | 110 kts | 214° |
| 2026-04-18 05:03 | -36.84605 | 145.23060 | 1567 ft | 109 kts | 216° |
| 2026-04-18 05:04 | -36.85177 | 145.22455 | 1445 ft | 107 kts | 216° |
| 2026-04-18 05:04 | -36.85771 | 145.21907 | 1373 ft | 106 kts | 210° |
| 2026-04-18 05:04 | -36.86376 | 145.21368 | 1275 ft | 109 kts | 212° |
| 2026-04-18 05:04 | -36.86961 | 145.20780 | 1273 ft | 102 kts | 220° |
| 2026-04-18 05:05 | -36.87526 | 145.20277 | 1255 ft | 99 kts | 214° |
| 2026-04-18 05:05 | -36.88049 | 145.19746 | 1312 ft | 98 kts | 224° |
| 2026-04-18 05:05 | -36.88224 | 145.18926 | 1441 ft | 104 kts | 273° |
| 2026-04-18 05:05 | -36.87965 | 145.18040 | 1445 ft | 117 kts | 292° |
| 2026-04-18 05:06 | -36.87491 | 145.17649 | 1389 ft | 138 kts | 346° |
| 2026-04-18 05:06 | -36.86192 | 145.17843 | 1308 ft | 142 kts | 5° |
| 2026-04-18 05:06 | -36.85544 | 145.18012 | 1216 ft | 145 kts | 26° |
| 2026-04-18 05:06 | -36.85105 | 145.19249 | 965 ft | 106 kts | 121° |
| 2026-04-18 05:07 | -36.85442 | 145.19497 | 926 ft | 82 kts | 186° |
| 2026-04-18 05:07 | -36.85726 | 145.19451 | 905 ft | 75 kts | 185° |
| 2026-04-18 05:07 | -36.86136 | 145.19354 | 861 ft | 73 kts | 188° |
| 2026-04-18 05:07 | -36.86638 | 145.19291 | 812 ft | 72 kts | 186° |
| 2026-04-18 05:08 | -36.87135 | 145.19198 | 728 ft | 73 kts | 188° |
| 2026-04-18 05:08 | -36.87660 | 145.19108 | 616 ft | 77 kts | 189° |
| 2026-04-18 05:08 | -36.88179 | 145.19010 | 499 ft | 73 kts | 188° |
| 2026-04-18 05:08 | -36.88616 | 145.18928 | 468 ft | 52 kts | 188° |
| 2026-04-18 05:09 | -36.88904 | 145.18870 | 470 ft | 33 kts | 187° |
| 2026-04-18 05:09 | -36.89072 | 145.18799 | 469 ft | 19 kts | 266° |
| 2026-04-18 05:09 | -36.89054 | 145.18644 | 470 ft | 17 kts | 276° |
| 2026-04-18 05:09 | -36.89094 | 145.18640 | 470 ft | 0 kts | 120° |